Time;durP1;ratioP1;P1;durP2;ratioP2;P2;SDS_P1;SDS_P2;PMS_P1;PMS_P2;Temp;Humidity;BMP_temperature;BMP_pressure;BME280_temperature;BME280_humidity;BME280_pressure;Samples;Min_cycle;Max_cycle;Signal;HPM_P1;HPM_P2
2023/03/15 00:00:12;;;;;;;3.03;0.97;;;5.60;99.90;;;;;;5051010;28;20544;-69
2023/03/15 00:02:40;;;;;;;2.40;0.93;;;5.60;99.90;;;;;;5031990;28;20215;-70
2023/03/15 00:05:06;;;;;;;2.10;1.20;;;5.20;99.90;;;;;;5042634;28;20458;-69
2023/03/15 00:07:32;;;;;;;12.47;1.30;;;5.10;99.90;;;;;;5028885;28;20584;-70
2023/03/15 00:09:57;;;;;;;4.30;1.00;;;5.20;99.90;;;;;;5044382;28;20533;-69
2023/03/15 00:12:23;;;;;;;7.13;1.17;;;5.00;99.90;;;;;;5016381;28;20211;-69
2023/03/15 00:14:49;;;;;;;1.27;1.17;;;4.70;99.90;;;;;;5048793;28;20606;-68
2023/03/15 00:17:15;;;;;;;2.10;1.07;;;4.50;99.90;;;;;;5028100;28;20306;-68
2023/03/15 00:19:41;;;;;;;9.37;1.57;;;4.60;99.90;;;;;;5030679;28;20550;-68
2023/03/15 00:22:07;;;;;;;1.17;0.90;;;4.60;99.90;;;;;;5044815;28;20219;-68
2023/03/15 00:24:32;;;;;;;2.00;0.80;;;4.60;99.90;;;;;;5026078;28;20215;-68
2023/03/15 00:26:58;;;;;;;3.67;1.17;;;4.40;99.90;;;;;;5029281;28;21036;-69
2023/03/15 00:29:24;;;;;;;2.33;0.80;;;4.30;99.90;;;;;;5046142;28;20264;-69
2023/03/15 00:31:50;;;;;;;1.47;1.33;;;4.10;99.90;;;;;;5030290;28;20253;-69
2023/03/15 00:34:17;;;;;;;1.47;1.00;;;4.00;99.90;;;;;;5031878;28;20286;-69
2023/03/15 00:36:44;;;;;;;2.20;1.00;;;4.10;99.90;;;;;;5013979;28;20519;-69
2023/03/15 00:39:10;;;;;;;7.00;1.80;;;4.00;99.90;;;;;;5027051;28;20529;-69
2023/03/15 00:41:36;;;;;;;1.30;1.00;;;4.00;99.90;;;;;;5014026;28;20528;-69
2023/03/15 00:44:03;;;;;;;1.83;1.43;;;3.90;99.90;;;;;;5023212;28;20237;-69
2023/03/15 00:46:29;;;;;;;5.30;2.00;;;3.90;99.90;;;;;;5029575;28;20545;-68
2023/03/15 00:48:56;;;;;;;5.90;1.83;;;3.80;99.90;;;;;;5047062;28;20457;-69
2023/03/15 00:51:23;;;;;;;2.30;1.27;;;3.50;99.90;;;;;;5032114;28;20567;-66
2023/03/15 00:53:51;;;;;;;3.30;0.97;;;3.50;99.90;;;;;;5016195;28;20223;-68
2023/03/15 00:56:22;;;;;;;1.70;1.07;;;3.60;99.90;;;;;;5026730;28;21011;-69
2023/03/15 00:58:51;;;;;;;2.70;1.20;;;3.70;99.90;;;;;;5023542;28;20463;-69
2023/03/15 01:01:22;;;;;;;2.90;1.30;;;3.70;99.90;;;;;;5049881;28;20468;-69
2023/03/15 01:03:49;;;;;;;3.87;1.37;;;3.80;99.90;;;;;;5018763;28;20466;-68
2023/03/15 01:06:20;;;;;;;3.20;1.27;;;3.70;99.90;;;;;;5049991;28;20458;-66
2023/03/15 01:08:47;;;;;;;2.10;1.20;;;3.60;99.90;;;;;;5027068;28;20579;-68
2023/03/15 01:11:16;;;;;;;3.37;1.47;;;3.60;99.90;;;;;;5012273;28;20461;-68
2023/03/15 01:13:42;;;;;;;1.83;1.50;;;3.70;99.90;;;;;;5028900;28;20478;-68
2023/03/15 01:16:11;;;;;;;1.63;1.00;;;3.60;99.90;;;;;;5012877;28;20449;-69
2023/03/15 01:18:37;;;;;;;3.60;1.33;;;3.50;99.90;;;;;;5020559;28;20470;-68
2023/03/15 01:21:07;;;;;;;2.00;0.90;;;3.40;99.90;;;;;;5030277;28;20526;-69
2023/03/15 01:23:33;;;;;;;1.50;1.40;;;3.50;99.90;;;;;;5049399;28;20473;-69
2023/03/15 01:26:00;;;;;;;1.53;1.37;;;3.50;99.90;;;;;;5012840;28;20471;-69
2023/03/15 01:28:26;;;;;;;0.70;0.70;;;3.30;99.90;;;;;;5027346;28;20284;-70
2023/03/15 01:30:52;;;;;;;1.17;1.07;;;3.20;99.90;;;;;;5024579;28;20462;-71
2023/03/15 01:33:19;;;;;;;4.27;1.47;;;3.10;99.90;;;;;;5025872;28;20211;-69
2023/03/15 01:35:45;;;;;;;2.93;1.40;;;3.10;99.90;;;;;;5027969;28;20227;-68
2023/03/15 01:38:11;;;;;;;3.50;1.50;;;3.30;99.90;;;;;;5023624;28;20549;-69
2023/03/15 01:40:41;;;;;;;2.27;1.60;;;3.10;99.90;;;;;;5006898;28;20219;-68
2023/03/15 01:43:07;;;;;;;2.97;1.10;;;3.10;99.90;;;;;;5005693;28;20458;-68
2023/03/15 01:46:14;;;;;;;5.20;1.40;;;3.00;99.90;;;;;;5029137;28;20839;-69
2023/03/15 01:48:45;;;;;;;2.40;1.37;;;2.80;99.90;;;;;;4965752;28;20225;-69
2023/03/15 01:51:33;;;;;;;1.27;1.10;;;2.80;99.90;;;;;;5005166;28;20522;-68
2023/03/15 01:54:16;;;;;;;1.63;1.43;;;2.60;99.90;;;;;;5011834;28;20512;-69
2023/03/15 01:57:01;;;;;;;2.30;1.07;;;2.60;99.90;;;;;;5017375;28;20467;-68
2023/03/15 01:59:57;;;;;;;1.53;1.27;;;2.60;99.90;;;;;;5002860;28;20488;-69
2023/03/15 02:02:24;;;;;;;2.47;1.87;;;2.60;99.90;;;;;;5026002;28;20478;-69
2023/03/15 02:05:05;;;;;;;2.97;1.53;;;2.80;99.90;;;;;;5030485;28;20458;-69
2023/03/15 02:07:34;;;;;;;5.13;1.20;;;2.70;99.90;;;;;;5014952;28;20477;-68
2023/03/15 02:10:04;;;;;;;1.13;0.87;;;2.70;99.90;;;;;;5023091;28;20461;-69
2023/03/15 02:12:37;;;;;;;2.20;1.03;;;2.70;99.90;;;;;;5023900;28;20465;-68
2023/03/15 02:15:05;;;;;;;1.10;1.00;;;2.60;99.90;;;;;;5030999;28;20580;-69
2023/03/15 02:17:40;;;;;;;7.77;1.60;;;2.50;99.90;;;;;;5027826;28;21039;-69
2023/03/15 02:20:31;;;;;;;0.97;0.97;;;2.60;99.90;;;;;;5024895;28;20449;-68
2023/03/15 02:23:19;;;;;;;3.00;1.00;;;2.60;99.90;;;;;;5029481;28;20533;-69
2023/03/15 02:26:22;;;;;;;6.20;1.30;;;2.60;99.90;;;;;;5008900;28;20446;-67
2023/03/15 02:28:48;;;;;;;1.00;1.00;;;2.40;99.90;;;;;;5021926;28;20477;-67
2023/03/15 02:31:14;;;;;;;5.80;1.17;;;2.40;99.90;;;;;;5019849;28;20462;-68
2023/03/15 02:33:44;;;;;;;4.77;1.33;;;2.40;99.90;;;;;;5023673;28;20522;-67
2023/03/15 02:36:15;;;;;;;5.20;1.20;;;2.40;99.90;;;;;;5012751;28;20468;-68
2023/03/15 02:38:41;;;;;;;3.63;1.83;;;2.40;99.90;;;;;;5028845;28;20636;-68
2023/03/15 02:41:07;;;;;;;3.83;1.43;;;2.30;99.90;;;;;;5021147;28;20552;-69
2023/03/15 02:43:34;;;;;;;2.00;1.20;;;2.40;99.90;;;;;;5011433;28;20236;-68
2023/03/15 02:46:01;;;;;;;3.23;1.40;;;2.40;99.90;;;;;;5020293;28;20453;-69
2023/03/15 02:48:29;;;;;;;1.20;0.90;;;2.40;99.90;;;;;;5027219;28;20492;-68
2023/03/15 02:50:55;;;;;;;1.67;1.20;;;2.40;99.90;;;;;;5022689;28;20446;-68
2023/03/15 02:53:21;;;;;;;1.70;1.10;;;2.40;99.90;;;;;;5010855;28;20987;-68
2023/03/15 02:55:46;;;;;;;1.70;0.90;;;2.40;99.90;;;;;;5023498;28;20218;-68
2023/03/15 02:58:12;;;;;;;1.80;1.60;;;2.50;99.90;;;;;;5047354;28;20215;-68
2023/03/15 03:00:38;;;;;;;1.77;0.93;;;2.50;99.90;;;;;;5023614;28;20246;-69
2023/03/15 03:03:04;;;;;;;5.27;1.87;;;2.40;99.90;;;;;;5030448;28;20599;-68
2023/03/15 03:05:31;;;;;;;2.27;1.30;;;2.50;99.90;;;;;;5029033;28;20219;-69
2023/03/15 03:08:01;;;;;;;2.00;0.83;;;2.40;99.90;;;;;;5028527;28;20449;-68
2023/03/15 03:10:27;;;;;;;2.40;1.77;;;2.30;99.90;;;;;;5030369;28;20210;-68
2023/03/15 03:12:56;;;;;;;3.37;1.60;;;2.30;99.90;;;;;;5020903;28;20466;-68
2023/03/15 03:15:32;;;;;;;3.97;1.23;;;2.40;99.90;;;;;;5016515;28;20457;-68
2023/03/15 03:17:57;;;;;;;9.13;1.40;;;2.60;99.90;;;;;;5012004;28;20447;-69
2023/03/15 03:20:24;;;;;;;2.50;0.77;;;2.70;99.90;;;;;;5010117;28;20265;-68
2023/03/15 03:22:49;;;;;;;1.40;1.30;;;2.70;99.90;;;;;;5029573;28;20227;-67
2023/03/15 03:25:16;;;;;;;3.93;1.33;;;2.70;99.90;;;;;;5014222;28;20462;-68
2023/03/15 03:27:42;;;;;;;3.37;0.90;;;2.70;99.90;;;;;;5011170;28;20465;-68
2023/03/15 03:30:11;;;;;;;4.47;1.17;;;2.50;99.90;;;;;;5030107;28;20227;-69
2023/03/15 03:32:40;;;;;;;2.03;1.60;;;2.40;99.90;;;;;;5013689;28;20465;-67
2023/03/15 03:35:07;;;;;;;4.37;2.13;;;2.20;99.90;;;;;;5013226;28;20447;-68
2023/03/15 03:37:34;;;;;;;2.60;1.23;;;2.30;99.90;;;;;;5032104;28;20475;-67
2023/03/15 03:40:07;;;;;;;1.43;1.33;;;2.40;99.90;;;;;;5027200;28;20437;-68
2023/03/15 03:42:33;;;;;;;4.07;1.50;;;2.30;99.90;;;;;;5016542;28;20453;-67
2023/03/15 03:45:00;;;;;;;1.70;1.23;;;2.30;99.90;;;;;;5027580;28;20523;-68
2023/03/15 03:47:31;;;;;;;1.73;1.07;;;2.50;99.90;;;;;;5027143;28;20466;-68
2023/03/15 03:49:57;;;;;;;2.30;1.10;;;2.70;99.90;;;;;;5024542;28;21028;-69
2023/03/15 03:52:22;;;;;;;3.23;1.10;;;2.90;99.90;;;;;;5024346;28;20450;-68
2023/03/15 03:54:50;;;;;;;2.83;1.10;;;3.10;99.90;;;;;;5030612;28;20319;-66
2023/03/15 03:57:16;;;;;;;2.40;1.33;;;3.20;99.90;;;;;;5025242;28;20573;-66
2023/03/15 03:59:42;;;;;;;1.10;0.90;;;3.30;99.90;;;;;;5030032;28;20249;-67
2023/03/15 04:02:08;;;;;;;2.00;1.30;;;3.40;99.90;;;;;;5011561;28;20257;-67
2023/03/15 04:04:34;;;;;;;1.33;1.23;;;3.40;99.90;;;;;;5012270;28;20479;-68
2023/03/15 04:07:01;;;;;;;3.33;1.30;;;3.40;99.90;;;;;;5029106;28;20455;-67
2023/03/15 04:09:36;;;;;;;2.10;1.33;;;3.40;99.90;;;;;;5009066;28;20525;-67
2023/03/15 04:12:04;;;;;;;2.63;1.37;;;3.40;99.90;;;;;;5015827;28;20453;-68
2023/03/15 04:14:31;;;;;;;6.87;1.27;;;3.50;99.90;;;;;;5027920;28;20455;-68
2023/03/15 04:16:57;;;;;;;2.37;1.17;;;3.60;99.90;;;;;;5015641;28;20453;-68
2023/03/15 04:19:22;;;;;;;3.03;1.00;;;3.50;99.90;;;;;;5013052;28;20472;-68
2023/03/15 04:21:51;;;;;;;2.97;1.33;;;3.50;99.90;;;;;;5047751;28;20696;-68
2023/03/15 04:24:35;;;;;;;1.30;1.20;;;3.60;99.90;;;;;;5015770;28;20458;-67
2023/03/15 04:27:13;;;;;;;3.60;1.60;;;3.10;99.90;;;;;;5015830;28;20473;-69
2023/03/15 04:29:56;;;;;;;4.80;1.10;;;2.70;99.90;;;;;;5012541;28;20453;-68
2023/03/15 04:32:45;;;;;;;3.60;1.03;;;2.60;99.90;;;;;;5009705;28;20500;-68
2023/03/15 04:35:19;;;;;;;0.70;0.70;;;2.30;99.90;;;;;;5032137;28;20465;-67
2023/03/15 04:38:05;;;;;;;6.20;1.70;;;2.30;99.90;;;;;;5034897;28;20443;-68
2023/03/15 04:40:37;;;;;;;1.33;1.10;;;2.30;99.90;;;;;;5055366;28;20514;-68
2023/03/15 04:43:15;;;;;;;5.80;1.27;;;2.20;99.90;;;;;;5030892;28;20852;-67
2023/03/15 04:45:52;;;;;;;1.50;1.00;;;2.20;99.90;;;;;;5016375;28;20437;-68
2023/03/15 04:48:26;;;;;;;2.87;0.93;;;2.20;99.90;;;;;;5029065;28;20477;-67
2023/03/15 04:51:15;;;;;;;3.07;1.63;;;2.10;99.90;;;;;;5026511;28;20472;-67
2023/03/15 04:53:48;;;;;;;5.10;1.63;;;2.20;99.90;;;;;;5032396;28;20458;-66
2023/03/15 04:56:32;;;;;;;1.90;1.07;;;2.10;99.90;;;;;;5052714;28;20456;-68
2023/03/15 04:59:17;;;;;;;7.60;1.10;;;2.10;99.90;;;;;;5040825;28;21004;-68
2023/03/15 05:02:05;;;;;;;2.30;1.50;;;2.10;99.90;;;;;;5023256;28;20493;-67
2023/03/15 05:04:40;;;;;;;3.20;1.17;;;2.10;99.90;;;;;;5023401;28;20469;-66
2023/03/15 05:07:21;;;;;;;1.43;1.20;;;2.10;99.90;;;;;;5038907;28;20464;-66
2023/03/15 05:10:06;;;;;;;1.60;1.20;;;2.10;99.90;;;;;;5047278;28;20463;-67
2023/03/15 05:12:50;;;;;;;3.43;1.60;;;2.10;99.90;;;;;;5048023;28;20468;-69
2023/03/15 05:15:23;;;;;;;1.13;1.03;;;2.10;99.90;;;;;;5022407;28;20473;-68
2023/03/15 05:18:09;;;;;;;1.93;1.50;;;2.10;99.90;;;;;;5044457;28;20443;-68
2023/03/15 05:20:58;;;;;;;1.00;1.00;;;2.10;99.90;;;;;;5017231;28;20451;-68
2023/03/15 05:23:43;;;;;;;6.93;1.67;;;2.10;99.90;;;;;;5023864;28;20470;-68
2023/03/15 05:26:27;;;;;;;3.03;1.27;;;2.10;99.90;;;;;;5047879;28;20455;-67
2023/03/15 05:29:12;;;;;;;4.50;1.50;;;2.10;99.90;;;;;;5032160;28;20498;-67
2023/03/15 05:31:58;;;;;;;3.33;1.67;;;2.00;99.90;;;;;;5032827;28;20508;-68
2023/03/15 05:34:27;;;;;;;1.23;1.03;;;2.00;99.90;;;;;;5055407;28;20468;-69
2023/03/15 05:37:06;;;;;;;1.43;1.33;;;2.10;99.90;;;;;;5024150;28;20489;-68
2023/03/15 05:39:55;;;;;;;6.50;2.70;;;2.10;99.90;;;;;;5034337;28;20475;-68
2023/03/15 05:42:45;;;;;;;4.93;2.20;;;2.00;99.90;;;;;;5033739;28;20497;-68
2023/03/15 05:45:14;;;;;;;1.93;1.80;;;2.10;99.90;;;;;;5053414;28;20480;-68
2023/03/15 05:47:42;;;;;;;1.90;1.63;;;2.10;99.90;;;;;;5027825;28;20605;-67
2023/03/15 05:50:16;;;;;;;3.47;2.10;;;2.10;99.90;;;;;;5031519;28;20464;-68
2023/03/15 05:53:00;;;;;;;6.37;2.57;;;2.10;99.90;;;;;;5054445;28;20467;-69
2023/03/15 05:55:52;;;;;;;3.10;2.00;;;2.10;99.90;;;;;;5007896;28;20465;-68
2023/03/15 05:58:36;;;;;;;5.47;2.20;;;2.10;99.90;;;;;;5037550;28;20527;-68
2023/03/15 06:01:25;;;;;;;4.10;2.20;;;2.10;99.90;;;;;;5025106;28;20552;-66
2023/03/15 06:04:03;;;;;;;2.70;2.50;;;2.10;99.90;;;;;;5008183;28;20448;-69
2023/03/15 06:06:31;;;;;;;6.70;2.57;;;2.20;99.90;;;;;;5008416;28;20461;-68
2023/03/15 06:08:57;;;;;;;5.70;2.53;;;2.20;99.90;;;;;;5026847;28;20461;-68
2023/03/15 06:11:23;;;;;;;3.67;2.83;;;2.20;99.90;;;;;;5014869;28;20461;-69
2023/03/15 06:13:49;;;;;;;4.60;2.70;;;2.10;99.90;;;;;;5027897;28;20480;-69
2023/03/15 06:16:28;;;;;;;3.77;1.90;;;2.10;99.90;;;;;;5030653;28;20468;-68
2023/03/15 06:18:56;;;;;;;4.53;2.50;;;2.10;99.90;;;;;;5028936;28;20445;-68
2023/03/15 06:21:22;;;;;;;3.90;2.30;;;2.10;99.90;;;;;;5013595;28;20479;-67
2023/03/15 06:23:47;;;;;;;3.80;2.80;;;2.00;99.90;;;;;;5028253;28;20226;-68
2023/03/15 06:26:14;;;;;;;5.90;2.80;;;2.00;99.90;;;;;;5009625;28;20250;-66
2023/03/15 06:28:40;;;;;;;8.30;3.23;;;2.10;99.90;;;;;;4982674;28;20252;-69
2023/03/15 06:31:07;;;;;;;4.57;2.67;;;2.10;99.90;;;;;;5025656;28;20462;-69
2023/03/15 06:33:38;;;;;;;3.30;2.80;;;2.00;99.90;;;;;;5028359;28;20511;-67
2023/03/15 06:36:08;;;;;;;9.50;2.93;;;2.20;99.90;;;;;;5029925;28;20955;-68
2023/03/15 06:38:33;;;;;;;5.53;3.07;;;2.20;99.90;;;;;;5013212;28;20859;-69
2023/03/15 06:41:00;;;;;;;4.73;3.07;;;2.20;99.90;;;;;;5010984;28;20450;-69
2023/03/15 06:43:26;;;;;;;4.80;2.73;;;2.20;99.90;;;;;;5015942;28;20222;-67
2023/03/15 06:45:54;;;;;;;18.53;3.50;;;2.20;99.90;;;;;;5025384;28;20457;-70
2023/03/15 06:48:20;;;;;;;9.13;3.17;;;2.20;99.90;;;;;;5009354;28;20473;-67
2023/03/15 06:50:46;;;;;;;5.30;2.80;;;2.20;99.90;;;;;;5011260;28;21021;-69
2023/03/15 06:53:13;;;;;;;3.60;2.57;;;2.20;99.90;;;;;;5037199;28;20464;-66
2023/03/15 06:55:38;;;;;;;3.93;2.30;;;2.20;99.90;;;;;;5012740;28;20505;-68
2023/03/15 06:58:04;;;;;;;3.40;2.10;;;2.30;99.90;;;;;;5023769;28;21065;-68
2023/03/15 07:00:30;;;;;;;2.97;1.90;;;2.30;99.90;;;;;;5003604;28;20696;-69
2023/03/15 07:02:55;;;;;;;2.67;2.00;;;2.40;99.90;;;;;;5024744;28;20723;-68
2023/03/15 07:05:21;;;;;;;2.97;1.83;;;2.30;99.90;;;;;;5029257;28;20218;-70
2023/03/15 07:07:47;;;;;;;3.47;2.23;;;2.30;99.90;;;;;;5027078;28;20219;-68
2023/03/15 07:10:12;;;;;;;8.97;2.97;;;2.30;99.90;;;;;;4997110;28;20218;-68
2023/03/15 07:12:38;;;;;;;10.23;2.20;;;2.30;99.90;;;;;;5033120;28;20230;-69
2023/03/15 07:15:04;;;;;;;7.90;2.23;;;2.30;99.90;;;;;;5023741;28;20219;-68
2023/03/15 07:17:30;;;;;;;3.63;2.50;;;2.30;99.90;;;;;;5032259;28;20223;-68
2023/03/15 07:19:55;;;;;;;9.70;2.00;;;2.30;99.90;;;;;;5038199;28;20489;-70
2023/03/15 07:22:21;;;;;;;2.17;1.97;;;2.40;99.90;;;;;;5050996;28;20246;-69
2023/03/15 07:24:47;;;;;;;2.03;1.83;;;2.30;99.90;;;;;;5016146;28;20268;-69
2023/03/15 07:27:13;;;;;;;3.20;2.07;;;2.40;99.90;;;;;;5026826;28;20548;-69
2023/03/15 07:29:40;;;;;;;4.00;2.10;;;2.40;99.90;;;;;;5031467;28;20576;-69
2023/03/15 07:32:06;;;;;;;4.50;2.73;;;2.40;99.90;;;;;;5049079;28;20222;-68
2023/03/15 07:34:31;;;;;;;8.77;2.63;;;2.40;99.90;;;;;;5029341;28;20465;-69
2023/03/15 07:36:57;;;;;;;4.63;2.37;;;2.40;99.90;;;;;;5038832;28;20462;-68
2023/03/15 07:39:25;;;;;;;4.00;2.07;;;2.40;99.90;;;;;;5014986;28;20771;-67
2023/03/15 07:41:51;;;;;;;1.63;1.50;;;2.40;99.90;;;;;;5048261;28;20242;-68
2023/03/15 07:44:29;;;;;;;5.70;2.27;;;2.40;99.90;;;;;;5032054;28;20518;-69
2023/03/15 07:46:55;;;;;;;4.03;2.07;;;2.40;99.90;;;;;;5026017;28;20453;-68
2023/03/15 07:49:20;;;;;;;8.43;2.70;;;2.50;99.90;;;;;;5030613;28;20229;-69
2023/03/15 07:51:46;;;;;;;2.50;2.07;;;2.50;99.90;;;;;;5016025;28;20219;-69
2023/03/15 07:54:12;;;;;;;4.30;2.40;;;2.60;99.90;;;;;;5013380;28;20302;-69
2023/03/15 07:56:37;;;;;;;4.13;2.40;;;2.60;99.90;;;;;;5030352;28;20215;-69
2023/03/15 07:59:03;;;;;;;5.43;2.63;;;2.60;99.90;;;;;;5046777;28;20273;-69
2023/03/15 08:01:29;;;;;;;3.80;2.40;;;2.60;99.90;;;;;;5025248;28;20311;-69
2023/03/15 08:03:54;;;;;;;3.43;1.93;;;2.70;99.90;;;;;;5013733;28;20314;-69
2023/03/15 08:06:20;;;;;;;3.93;3.17;;;2.80;99.90;;;;;;5028853;28;20250;-69
2023/03/15 08:08:46;;;;;;;4.73;3.43;;;2.90;99.90;;;;;;5048696;28;20314;-70
2023/03/15 08:11:12;;;;;;;7.63;3.43;;;2.80;99.90;;;;;;5012368;28;20249;-70
2023/03/15 08:13:37;;;;;;;4.07;2.67;;;2.80;99.90;;;;;;5038451;28;20227;-69
2023/03/15 08:16:03;;;;;;;4.23;3.20;;;2.80;99.90;;;;;;5030498;28;20539;-69
2023/03/15 08:18:29;;;;;;;4.10;2.73;;;2.90;99.90;;;;;;5044482;28;20234;-69
2023/03/15 08:20:55;;;;;;;4.90;2.90;;;3.00;99.90;;;;;;5044527;28;20473;-69
2023/03/15 08:23:21;;;;;;;8.43;3.00;;;3.00;99.90;;;;;;5012987;28;20492;-70
2023/03/15 08:25:48;;;;;;;9.03;3.47;;;3.00;99.90;;;;;;5024093;28;20561;-69
2023/03/15 08:28:14;;;;;;;4.97;3.37;;;3.00;99.90;;;;;;5028076;28;20477;-69
2023/03/15 08:30:40;;;;;;;7.23;3.03;;;3.10;99.90;;;;;;5030683;28;20466;-68
2023/03/15 08:33:07;;;;;;;6.10;2.80;;;3.10;99.90;;;;;;5045291;28;20230;-71
2023/03/15 08:35:33;;;;;;;7.97;3.03;;;3.10;99.90;;;;;;5029752;28;20223;-68
2023/03/15 08:38:01;;;;;;;10.73;3.13;;;3.10;99.90;;;;;;5018224;28;20460;-69
2023/03/15 08:40:28;;;;;;;5.30;3.23;;;3.20;99.90;;;;;;5029238;28;20461;-69
2023/03/15 08:42:55;;;;;;;10.30;3.10;;;3.30;99.90;;;;;;5027217;28;20479;-69
2023/03/15 08:45:23;;;;;;;4.60;3.00;;;3.40;99.90;;;;;;5015473;28;20805;-71
2023/03/15 08:47:52;;;;;;;5.97;2.73;;;3.40;99.90;;;;;;5025570;28;20457;-69
2023/03/15 08:50:18;;;;;;;5.13;2.80;;;3.50;99.90;;;;;;5013581;28;21063;-69
2023/03/15 08:52:44;;;;;;;5.50;2.83;;;3.60;99.90;;;;;;5026962;28;20466;-69
2023/03/15 08:55:13;;;;;;;7.63;3.87;;;3.60;99.90;;;;;;5024708;28;20246;-69
2023/03/15 08:57:39;;;;;;;4.23;2.40;;;3.70;99.90;;;;;;5012443;28;20545;-68
2023/03/15 09:00:09;;;;;;;4.20;3.33;;;3.70;99.90;;;;;;5025426;28;20462;-69
2023/03/15 09:02:36;;;;;;;5.10;3.13;;;3.80;99.90;;;;;;5025985;28;20478;-69
2023/03/15 09:05:03;;;;;;;3.87;2.73;;;3.80;99.90;;;;;;5011231;28;20485;-69
2023/03/15 09:07:28;;;;;;;6.87;3.70;;;3.70;99.90;;;;;;5023428;28;20503;-69
2023/03/15 09:09:54;;;;;;;5.10;2.80;;;3.70;99.90;;;;;;5029593;28;21284;-69
2023/03/15 09:12:20;;;;;;;8.83;3.90;;;3.80;99.90;;;;;;5024702;28;20696;-70
2023/03/15 09:14:46;;;;;;;5.60;3.17;;;3.80;99.90;;;;;;5044772;28;20227;-69
2023/03/15 09:17:12;;;;;;;4.30;3.13;;;3.90;99.90;;;;;;5023908;28;20466;-70
2023/03/15 09:19:38;;;;;;;6.90;3.27;;;4.00;99.90;;;;;;5006224;28;20507;-69
2023/03/15 09:22:04;;;;;;;4.00;3.50;;;4.20;99.90;;;;;;5014007;28;20336;-70
2023/03/15 09:24:30;;;;;;;5.40;3.50;;;4.30;99.90;;;;;;5027021;28;20469;-69
2023/03/15 09:26:56;;;;;;;4.93;3.10;;;4.30;99.90;;;;;;5042940;28;20460;-70
2023/03/15 09:29:21;;;;;;;6.40;3.07;;;4.40;99.90;;;;;;5046227;28;20230;-68
2023/03/15 09:31:47;;;;;;;4.63;3.10;;;4.40;99.90;;;;;;5010828;28;20219;-69
2023/03/15 09:34:13;;;;;;;6.00;2.97;;;4.50;99.90;;;;;;5025332;28;20229;-69
2023/03/15 09:36:38;;;;;;;5.57;3.43;;;4.60;99.90;;;;;;5011960;28;20245;-69
2023/03/15 09:39:04;;;;;;;5.80;2.70;;;4.60;99.90;;;;;;5013597;28;20238;-68
2023/03/15 09:41:43;;;;;;;5.60;3.27;;;4.70;99.90;;;;;;5049623;28;20843;-67
2023/03/15 09:44:24;;;;;;;4.80;2.90;;;4.70;99.90;;;;;;5009383;28;20541;-69
2023/03/15 09:46:56;;;;;;;5.50;3.33;;;4.70;99.90;;;;;;5016880;28;20458;-69
2023/03/15 09:49:30;;;;;;;4.13;2.90;;;4.70;99.90;;;;;;5025068;28;20478;-68
2023/03/15 09:52:04;;;;;;;2.90;2.70;;;4.70;99.90;;;;;;5034750;28;20445;-69
2023/03/15 09:54:43;;;;;;;3.77;3.07;;;4.70;99.90;;;;;;5022691;28;20475;-70
2023/03/15 09:57:34;;;;;;;5.10;3.27;;;4.70;99.90;;;;;;5009344;28;20585;-68
2023/03/15 10:00:03;;;;;;;3.10;2.50;;;4.70;99.90;;;;;;5017232;28;20461;-69
2023/03/15 10:02:35;;;;;;;6.40;3.07;;;4.70;99.90;;;;;;5034507;28;20459;-69
2023/03/15 10:05:09;;;;;;;5.60;2.57;;;4.70;99.90;;;;;;5035975;28;20545;-69
2023/03/15 10:07:35;;;;;;;5.43;2.90;;;4.70;99.90;;;;;;5025462;28;20475;-69
2023/03/15 10:10:03;;;;;;;4.30;2.93;;;4.80;99.90;;;;;;5047968;28;20454;-69
2023/03/15 10:12:42;;;;;;;3.97;2.40;;;4.80;99.90;;;;;;5027077;28;20215;-69
2023/03/15 10:15:49;;;;;;;4.97;3.27;;;4.90;99.90;;;;;;5029414;28;20461;-70
2023/03/15 10:18:26;;;;;;;5.40;3.60;;;4.80;99.90;;;;;;4980933;28;20445;-69
2023/03/15 10:21:10;;;;;;;3.23;2.40;;;4.80;99.90;;;;;;5016782;28;20446;-70
2023/03/15 10:23:50;;;;;;;3.60;2.30;;;4.90;99.90;;;;;;5019732;28;20880;-69
2023/03/15 10:26:20;;;;;;;5.80;2.40;;;4.90;99.90;;;;;;5042031;28;20461;-70
2023/03/15 10:28:46;;;;;;;7.00;3.30;;;4.90;99.90;;;;;;5036575;28;20483;-70
2023/03/15 10:31:16;;;;;;;3.43;2.33;;;4.90;99.90;;;;;;5025189;28;20957;-69
2023/03/15 10:33:42;;;;;;;5.10;3.53;;;5.00;99.90;;;;;;5026984;28;20557;-70
2023/03/15 10:36:17;;;;;;;4.93;2.90;;;4.90;99.90;;;;;;5012449;28;20853;-70
2023/03/15 10:38:44;;;;;;;7.27;3.77;;;5.00;99.90;;;;;;5027584;28;20561;-70
2023/03/15 10:41:13;;;;;;;2.60;2.13;;;5.00;99.90;;;;;;5024607;28;20523;-70
2023/03/15 10:43:40;;;;;;;5.30;2.37;;;5.00;99.90;;;;;;5049081;28;20488;-70
2023/03/15 10:46:34;;;;;;;3.60;2.53;;;5.00;99.90;;;;;;5045750;28;20568;-69
2023/03/15 10:49:19;;;;;;;3.60;2.30;;;5.10;99.90;;;;;;5016493;28;20488;-71
2023/03/15 10:51:46;;;;;;;3.30;2.30;;;5.10;99.90;;;;;;5044533;28;20466;-70
2023/03/15 10:54:22;;;;;;;2.40;2.07;;;5.10;99.90;;;;;;5056363;28;20449;-69
2023/03/15 10:56:58;;;;;;;3.67;2.67;;;5.10;99.90;;;;;;5032350;28;20497;-68
2023/03/15 10:59:27;;;;;;;10.07;2.50;;;5.20;99.90;;;;;;5014518;28;20469;-67
2023/03/15 11:02:11;;;;;;;2.73;2.37;;;5.20;99.90;;;;;;5043957;28;20453;-69
2023/03/15 11:04:48;;;;;;;3.50;1.90;;;5.30;99.90;;;;;;5039796;28;20465;-69
2023/03/15 11:07:13;;;;;;;2.33;1.53;;;5.40;99.90;;;;;;5012386;28;20793;-70
2023/03/15 11:09:49;;;;;;;2.90;2.20;;;5.50;99.90;;;;;;5057889;28;20466;-70
2023/03/15 11:12:29;;;;;;;3.23;2.17;;;5.50;99.90;;;;;;5033648;28;20738;-70
2023/03/15 11:14:59;;;;;;;1.80;1.70;;;5.60;99.90;;;;;;5014462;28;20481;-69
2023/03/15 11:17:30;;;;;;;3.03;1.40;;;5.60;99.90;;;;;;5052238;28;20539;-70
2023/03/15 11:19:58;;;;;;;3.60;3.13;;;5.60;99.90;;;;;;5032033;28;20441;-69
2023/03/15 11:22:24;;;;;;;2.43;2.23;;;5.70;99.90;;;;;;5032834;28;20489;-70
2023/03/15 11:24:53;;;;;;;4.53;4.27;;;5.70;99.90;;;;;;5035993;28;21004;-70
2023/03/15 11:27:22;;;;;;;6.93;6.33;;;5.70;99.90;;;;;;5035096;28;20472;-70
2023/03/15 11:29:51;;;;;;;6.97;5.77;;;5.70;99.90;;;;;;5038842;28;20548;-69
2023/03/15 11:32:23;;;;;;;5.13;3.80;;;5.80;99.90;;;;;;5050401;28;20481;-70
2023/03/15 11:34:58;;;;;;;3.40;2.47;;;5.80;99.90;;;;;;5032921;28;20457;-70
2023/03/15 11:37:31;;;;;;;5.37;4.23;;;5.80;99.90;;;;;;5029316;28;20453;-69
2023/03/15 11:40:22;;;;;;;5.17;4.67;;;5.80;99.90;;;;;;5027760;28;20449;-70
2023/03/15 11:43:30;;;;;;;3.67;3.37;;;5.90;99.90;;;;;;5038821;28;20466;-70
2023/03/15 11:46:04;;;;;;;3.30;3.00;;;6.00;99.90;;;;;;5029999;28;20585;-69
2023/03/15 11:48:47;;;;;;;3.30;2.70;;;6.10;99.90;;;;;;5031592;28;20478;-70
2023/03/15 11:51:13;;;;;;;2.57;2.37;;;6.10;99.90;;;;;;5032500;28;20465;-70
2023/03/15 11:54:04;;;;;;;2.47;2.27;;;5.90;99.90;;;;;;5031205;28;20549;-70
2023/03/15 11:56:52;;;;;;;1.70;1.57;;;5.70;99.90;;;;;;5013675;28;20446;-70
2023/03/15 11:59:27;;;;;;;2.33;2.13;;;5.70;99.90;;;;;;5050545;28;21013;-70
2023/03/15 12:02:00;;;;;;;3.10;2.80;;;5.70;99.90;;;;;;5033273;28;20473;-70
2023/03/15 12:04:32;;;;;;;2.20;2.00;;;5.70;99.90;;;;;;5032245;28;20466;-71
2023/03/15 12:07:03;;;;;;;2.10;1.73;;;5.80;99.90;;;;;;5033995;28;20457;-69
2023/03/15 12:09:32;;;;;;;3.80;1.67;;;5.80;99.90;;;;;;5020702;28;20567;-70
2023/03/15 12:12:00;;;;;;;2.27;1.63;;;5.80;99.90;;;;;;5035247;28;20478;-70
2023/03/15 12:14:30;;;;;;;1.50;1.40;;;5.70;99.90;;;;;;5042993;28;20540;-68
2023/03/15 12:17:27;;;;;;;2.70;2.00;;;5.70;99.90;;;;;;5014822;28;20446;-69
2023/03/15 12:20:08;;;;;;;2.03;1.57;;;5.70;99.90;;;;;;5048872;28;20939;-70
2023/03/15 12:22:36;;;;;;;2.77;1.90;;;5.70;99.90;;;;;;5049755;28;20556;-70
2023/03/15 12:25:34;;;;;;;3.33;2.33;;;5.70;99.90;;;;;;5049875;28;20469;-70
2023/03/15 12:28:07;;;;;;;3.03;1.90;;;5.70;99.90;;;;;;5017290;28;20481;-69
2023/03/15 12:30:40;;;;;;;3.10;2.40;;;5.80;99.90;;;;;;4996337;28;20467;-70
2023/03/15 12:33:19;;;;;;;3.83;2.73;;;5.90;99.90;;;;;;5022969;28;21005;-70
2023/03/15 12:35:46;;;;;;;2.33;1.80;;;5.90;99.90;;;;;;5014699;28;20473;-68
2023/03/15 12:38:22;;;;;;;2.33;2.13;;;5.90;99.90;;;;;;5025442;28;20450;-69
2023/03/15 12:40:57;;;;;;;3.20;2.07;;;6.00;99.90;;;;;;5029498;28;20481;-70
2023/03/15 12:43:43;;;;;;;1.80;1.60;;;6.00;99.90;;;;;;5009439;28;20469;-69
2023/03/15 12:46:52;;;;;;;3.10;1.90;;;6.00;99.90;;;;;;5029641;28;20981;-69
2023/03/15 12:49:21;;;;;;;4.93;1.60;;;6.10;99.90;;;;;;5023308;28;20481;-69
2023/03/15 12:51:54;;;;;;;2.97;1.93;;;6.20;99.90;;;;;;5015069;28;20478;-70
2023/03/15 12:54:23;;;;;;;2.53;1.87;;;6.30;99.90;;;;;;5023398;28;20511;-70
2023/03/15 12:56:54;;;;;;;4.60;2.20;;;6.40;99.90;;;;;;5017203;28;20480;-69
2023/03/15 12:59:45;;;;;;;2.43;1.90;;;6.40;99.90;;;;;;5059505;28;20470;-68
2023/03/15 13:02:28;;;;;;;2.60;1.70;;;6.40;99.90;;;;;;5037487;28;20836;-69
2023/03/15 13:05:15;;;;;;;1.30;1.20;;;6.40;99.90;;;;;;5046811;28;20442;-69
2023/03/15 13:07:40;;;;;;;1.67;1.10;;;6.50;99.90;;;;;;5046828;28;20531;-68
2023/03/15 13:10:22;;;;;;;2.17;1.47;;;6.60;99.90;;;;;;5015306;28;20552;-69
2023/03/15 13:12:58;;;;;;;4.40;2.63;;;6.70;99.90;;;;;;5010458;28;20554;-69
2023/03/15 13:15:33;;;;;;;7.30;4.20;;;6.80;99.90;;;;;;5053833;28;20511;-68
2023/03/15 13:18:16;;;;;;;4.40;2.90;;;6.80;99.90;;;;;;5028938;28;20453;-69
2023/03/15 13:21:04;;;;;;;18.90;7.70;;;6.90;99.90;;;;;;5029129;28;20489;-69